Gillam, Canada
Current Conditions -  °F | °C
As of 10:00 PM on Wednesday 22 Oct 2014 (Local Time) from CYGX Reporting Station
Light Rain Light Rain  
Wind Chill: 34°   Ceiling: 4000
Heat Index: 39°   Visibility: 15mi
Dew Point: 39°   Wind: 7mph
Humidity: 100%   Direction: 70°ENE
Pressure: 29.75"   Gusts: NA
Location:  56.35°N, 94.71°W
Report Text: CYGX 230300Z 07006KT 030V100 15SM -RA OVC040 04/04 A2975 RMK SC8 PRESRR SLP083
Loading
Personal Weather Stations






























Interactive Weather Map
Tropical Storm Tracking
New forecast layout! Learn more

10-Day Weather Forecast

Advertisements
Track Severe Weather on mobile